createdAt,value
2023-02-27T00:02:02.260Z,2.10
2023-02-27T00:05:04.129Z,2.20
2023-02-27T00:08:05.897Z,2.20
2023-02-27T00:11:07.741Z,2.10
2023-02-27T00:14:10.133Z,2.10
2023-02-27T00:17:12.070Z,2.10
2023-02-27T00:20:17.334Z,2.00
2023-02-27T00:23:19.156Z,2.10
2023-02-27T00:26:20.982Z,2.10
2023-02-27T00:29:22.782Z,2.10
2023-02-27T00:32:24.959Z,2.00
2023-02-27T00:35:27.049Z,2.10
2023-02-27T00:38:29.651Z,2.10
2023-02-27T00:41:31.417Z,2.10
2023-02-27T00:44:33.356Z,2.20
2023-02-27T00:47:35.890Z,2.10
2023-02-27T00:50:38.667Z,2.10
2023-02-27T00:53:41.119Z,2.10
2023-02-27T00:56:42.935Z,2.10
2023-02-27T00:59:45.015Z,2.00
2023-02-27T01:02:47.329Z,2.10
2023-02-27T01:05:49.364Z,2.00
2023-02-27T01:08:51.078Z,2.00
2023-02-27T01:11:53.448Z,2.00
2023-02-27T01:14:55.532Z,2.00
2023-02-27T01:17:57.510Z,1.90
2023-02-27T01:20:59.276Z,1.90
2023-02-27T01:24:01.510Z,1.90
2023-02-27T01:27:03.295Z,1.80
2023-02-27T01:30:06.891Z,1.90
2023-02-27T01:33:08.915Z,1.70
2023-02-27T01:36:11.141Z,1.80
2023-02-27T01:39:12.974Z,1.80
2023-02-27T01:42:26.537Z,1.70
2023-02-27T01:45:31.301Z,1.70
2023-02-27T01:48:36.819Z,1.60
2023-02-27T01:51:46.415Z,1.70
2023-02-27T01:54:48.703Z,1.70
2023-02-27T01:57:51.400Z,1.60
2023-02-27T02:00:54.074Z,1.60
2023-02-27T02:04:10.794Z,1.50
2023-02-27T02:07:17.392Z,1.50
2023-02-27T02:10:20.266Z,1.50
2023-02-27T02:13:22.840Z,1.50
2023-02-27T02:16:54.686Z,1.60
2023-02-27T02:20:07.667Z,1.50
2023-02-27T02:23:48.724Z,1.40
2023-02-27T02:27:37.764Z,1.40
2023-02-27T02:30:54.843Z,1.40
2023-02-27T02:34:06.577Z,1.50
2023-02-27T02:37:35.730Z,1.40
2023-02-27T02:40:49.160Z,1.50
2023-02-27T02:44:00.611Z,1.40
2023-02-27T02:47:08.561Z,1.50
2023-02-27T02:50:33.475Z,1.50
2023-02-27T02:54:00.266Z,1.50
2023-02-27T02:57:32.470Z,1.40
2023-02-27T03:00:40.932Z,1.40
2023-02-27T03:04:09.157Z,1.50
2023-02-27T03:07:34.363Z,1.40
2023-02-27T03:10:58.455Z,1.40
2023-02-27T03:14:16.875Z,1.40
2023-02-27T03:17:41.034Z,1.40
2023-02-27T03:20:47.327Z,1.40
2023-02-27T03:23:51.918Z,1.40
2023-02-27T03:27:01.292Z,1.50
2023-02-27T03:30:08.578Z,1.50
2023-02-27T03:33:22.851Z,1.50
2023-02-27T03:36:46.306Z,1.40
2023-02-27T03:40:10.117Z,1.30
2023-02-27T03:43:29.217Z,1.30
2023-02-27T03:46:31.484Z,1.30
2023-02-27T03:49:33.522Z,1.30
2023-02-27T03:52:35.451Z,1.20
2023-02-27T03:55:40.978Z,1.20
2023-02-27T03:58:43.225Z,1.20
2023-02-27T04:01:45.988Z,1.20
2023-02-27T04:04:48.088Z,1.10
2023-02-27T04:08:25.521Z,1.20
2023-02-27T04:11:27.490Z,1.10
2023-02-27T04:14:48.893Z,1.10
2023-02-27T04:18:25.230Z,0.90
2023-02-27T04:21:44.404Z,0.90
2023-02-27T04:24:56.543Z,0.90
2023-02-27T04:28:18.625Z,0.90
2023-02-27T04:31:32.912Z,0.90
2023-02-27T04:34:42.235Z,0.90
2023-02-27T04:37:59.634Z,1.00
2023-02-27T04:41:11.546Z,1.00
2023-02-27T04:44:15.618Z,0.80
2023-02-27T04:47:19.205Z,0.90
2023-02-27T04:50:35.624Z,1.00
2023-02-27T04:53:54.893Z,1.00
2023-02-27T04:57:02.288Z,0.90
2023-02-27T05:00:09.366Z,1.00
2023-02-27T05:03:28.746Z,0.90
2023-02-27T05:06:35.306Z,0.90
2023-02-27T05:09:55.313Z,1.00
2023-02-27T05:13:06.379Z,0.90
2023-02-27T05:16:11.369Z,0.90
2023-02-27T05:19:13.594Z,0.80
2023-02-27T05:22:21.677Z,0.80
2023-02-27T05:25:39.384Z,0.70
2023-02-27T05:29:09.328Z,0.80
2023-02-27T05:32:33.661Z,0.80
2023-02-27T05:36:01.118Z,0.60
2023-02-27T05:39:06.946Z,0.60
2023-02-27T05:42:16.752Z,0.60
2023-02-27T05:45:23.342Z,0.40
2023-02-27T05:48:29.794Z,0.30
2023-02-27T05:51:34.669Z,0.40
2023-02-27T05:54:48.822Z,0.40
2023-02-27T05:58:22.447Z,0.40
2023-02-27T06:01:24.676Z,0.40
2023-02-27T06:04:27.013Z,0.40
2023-02-27T06:07:32.524Z,0.30
2023-02-27T06:10:34.524Z,0.20
2023-02-27T06:13:36.481Z,0.30
2023-02-27T06:16:39.173Z,0.20
2023-02-27T06:19:41.379Z,0.10
2023-02-27T06:22:43.206Z,0.10
2023-02-27T06:25:45.152Z,0.10
2023-02-27T06:28:47.173Z,0.10
2023-02-27T06:31:49.100Z,0.30
2023-02-27T06:34:51.476Z,0.10
2023-02-27T06:37:53.295Z,0.00
2023-02-27T06:40:55.333Z,0.00
2023-02-27T06:43:58.120Z,0.10
2023-02-27T06:46:59.928Z,0.10
2023-02-27T06:50:01.728Z,0.00
2023-02-27T06:53:04.279Z,0.00
2023-02-27T06:56:06.676Z,0.20
2023-02-27T06:59:08.529Z,0.20
2023-02-27T07:02:13.713Z,0.30
2023-02-27T07:05:16.525Z,0.30
2023-02-27T07:08:18.364Z,0.30
2023-02-27T07:11:20.473Z,0.30
2023-02-27T07:14:22.794Z,0.50
2023-02-27T07:17:24.535Z,0.40
2023-02-27T07:20:26.303Z,0.50
2023-02-27T07:23:28.035Z,0.60
2023-02-27T07:26:29.909Z,0.50
2023-02-27T07:29:32.105Z,0.50
2023-02-27T07:32:33.925Z,0.50
2023-02-27T07:35:35.870Z,0.60
2023-02-27T07:38:37.643Z,0.60
2023-02-27T07:41:39.618Z,0.70
2023-02-27T07:44:41.604Z,0.70
2023-02-27T07:47:43.443Z,0.70
2023-02-27T07:50:45.488Z,0.70
2023-02-27T07:53:47.228Z,0.80
2023-02-27T07:56:49.120Z,0.90
2023-02-27T07:59:50.850Z,0.90
2023-02-27T08:02:53.302Z,1.00
2023-02-27T08:05:55.652Z,1.10
2023-02-27T08:08:57.644Z,1.20
2023-02-27T08:12:07.313Z,1.20
2023-02-27T08:15:09.809Z,1.30
2023-02-27T08:18:11.790Z,1.40
2023-02-27T08:21:14.349Z,1.50
2023-02-27T08:24:16.305Z,1.60
2023-02-27T08:27:18.475Z,1.70
2023-02-27T08:30:20.362Z,1.70
2023-02-27T08:33:23.918Z,1.80
2023-02-27T08:36:26.159Z,1.90
2023-02-27T08:39:28.086Z,2.00
2023-02-27T08:42:29.858Z,2.00
2023-02-27T08:45:31.763Z,2.10
2023-02-27T08:48:33.565Z,2.20
2023-02-27T08:51:35.332Z,2.20
2023-02-27T08:54:37.210Z,2.30
2023-02-27T08:57:39.400Z,2.30
2023-02-27T09:00:41.188Z,2.40
2023-02-27T09:03:43.408Z,2.40
2023-02-27T09:06:45.659Z,2.50
2023-02-27T09:09:49.901Z,2.50
2023-02-27T09:12:52.101Z,2.60
2023-02-27T09:15:54.395Z,2.70
2023-02-27T09:18:56.492Z,2.80
2023-02-27T09:21:58.304Z,2.90
2023-02-27T09:25:00.259Z,3.00
2023-02-27T09:28:02.091Z,3.10
2023-02-27T09:31:05.988Z,3.10
2023-02-27T09:34:07.827Z,3.20
2023-02-27T09:37:09.602Z,3.20
2023-02-27T09:40:19.854Z,3.30
2023-02-27T09:43:33.767Z,3.40
2023-02-27T09:46:35.631Z,3.50
2023-02-27T09:49:59.101Z,3.50
2023-02-27T09:53:01.172Z,3.60
2023-02-27T09:56:21.392Z,3.70
2023-02-27T09:59:44.601Z,3.80
2023-02-27T10:03:26.247Z,3.80
2023-02-27T10:06:56.940Z,3.90
2023-02-27T10:10:19.556Z,4.00
2023-02-27T10:13:45.910Z,4.10
2023-02-27T10:16:50.572Z,4.00
2023-02-27T10:19:54.222Z,4.10
2023-02-27T10:22:59.589Z,4.10
2023-02-27T10:26:02.447Z,4.10
2023-02-27T10:29:32.422Z,4.20
2023-02-27T10:32:36.169Z,4.40
2023-02-27T10:35:40.726Z,4.30
2023-02-27T10:38:46.316Z,4.40
2023-02-27T10:41:50.079Z,4.40
2023-02-27T10:44:53.760Z,4.50
2023-02-27T10:47:55.696Z,4.60
2023-02-27T10:51:23.265Z,4.60
2023-02-27T10:54:25.858Z,4.60
2023-02-27T10:57:27.778Z,4.50
2023-02-27T11:00:41.261Z,4.60
2023-02-27T11:03:44.900Z,4.70
2023-02-27T11:06:53.440Z,4.80
2023-02-27T11:10:04.581Z,4.90
2023-02-27T11:13:18.411Z,4.90
2023-02-27T11:16:24.126Z,5.00
2023-02-27T11:19:39.194Z,5.00
2023-02-27T11:22:41.850Z,5.00
2023-02-27T11:25:44.583Z,5.00
2023-02-27T11:28:46.411Z,5.00
2023-02-27T11:31:53.162Z,5.10
2023-02-27T11:34:55.210Z,5.20
2023-02-27T11:38:01.243Z,5.20
2023-02-27T11:41:07.778Z,5.20
2023-02-27T11:44:17.926Z,5.20
2023-02-27T11:47:34.684Z,5.30
2023-02-27T11:50:51.923Z,5.30
2023-02-27T11:54:09.469Z,5.20
2023-02-27T11:57:24.319Z,5.40
2023-02-27T12:00:45.528Z,5.30
2023-02-27T12:04:17.894Z,5.30
2023-02-27T12:07:41.717Z,5.30
2023-02-27T12:11:13.174Z,5.30
2023-02-27T12:14:45.769Z,5.30
2023-02-27T12:18:05.287Z,5.30
2023-02-27T12:21:23.807Z,5.40
2023-02-27T12:24:31.867Z,5.50
2023-02-27T12:28:03.005Z,5.60
2023-02-27T12:31:30.516Z,5.60
2023-02-27T12:34:39.166Z,5.60
2023-02-27T12:37:41.006Z,5.60
2023-02-27T12:40:50.071Z,5.60
2023-02-27T12:44:10.358Z,5.60
2023-02-27T12:47:18.201Z,5.60
2023-02-27T12:50:22.342Z,5.70
2023-02-27T12:53:32.492Z,5.80
2023-02-27T12:56:37.444Z,5.80
2023-02-27T13:00:08.275Z,5.80
2023-02-27T13:03:18.619Z,5.70
2023-02-27T13:07:04.916Z,5.60
2023-02-27T13:10:21.327Z,5.60
2023-02-27T13:13:41.324Z,5.70
2023-02-27T13:16:56.803Z,5.70
2023-02-27T13:20:20.338Z,5.70
2023-02-27T13:23:55.832Z,5.70
2023-02-27T13:27:13.805Z,5.70
2023-02-27T13:30:29.619Z,5.80
2023-02-27T13:33:43.546Z,5.80
2023-02-27T13:36:53.840Z,5.90
2023-02-27T13:39:56.291Z,5.90
2023-02-27T13:43:04.413Z,5.80
2023-02-27T13:46:23.256Z,5.80
2023-02-27T13:49:29.505Z,5.80
2023-02-27T13:52:34.950Z,5.90
2023-02-27T13:55:36.988Z,5.90
2023-02-27T13:58:38.960Z,5.90
2023-02-27T14:01:49.063Z,5.90
2023-02-27T14:04:58.222Z,5.90
2023-02-27T14:08:16.726Z,5.80
2023-02-27T14:11:26.509Z,5.90
2023-02-27T14:14:44.300Z,5.80
2023-02-27T14:17:49.635Z,5.90
2023-02-27T14:20:52.808Z,6.00
2023-02-27T14:23:54.720Z,6.10
2023-02-27T14:26:57.348Z,6.10
2023-02-27T14:30:04.006Z,6.10
2023-02-27T14:33:39.210Z,6.00
2023-02-27T14:36:50.210Z,6.00
2023-02-27T14:39:54.666Z,5.90
2023-02-27T14:43:17.064Z,5.90
2023-02-27T14:46:29.820Z,5.90
2023-02-27T14:49:36.191Z,6.00
2023-02-27T14:52:43.869Z,6.00
2023-02-27T14:55:54.513Z,6.00
2023-02-27T14:59:04.239Z,6.00
2023-02-27T15:02:34.035Z,6.00
2023-02-27T15:05:36.918Z,6.00
2023-02-27T15:08:41.674Z,6.00
2023-02-27T15:11:51.250Z,5.90
2023-02-27T15:15:02.476Z,6.00
2023-02-27T15:18:13.690Z,6.10
2023-02-27T15:21:15.918Z,6.10
2023-02-27T15:24:37.635Z,6.10
2023-02-27T15:27:45.903Z,6.10
2023-02-27T15:30:52.880Z,6.10
2023-02-27T15:33:55.576Z,6.20
2023-02-27T15:36:59.251Z,6.10
2023-02-27T15:40:02.124Z,6.10
2023-02-27T15:43:04.095Z,6.10
2023-02-27T15:46:06.380Z,6.00
2023-02-27T15:49:14.835Z,6.10
2023-02-27T15:52:26.021Z,6.10
2023-02-27T15:55:32.404Z,6.20
2023-02-27T15:58:37.750Z,6.10
2023-02-27T16:01:40.399Z,6.00
2023-02-27T16:04:45.811Z,6.10
2023-02-27T16:07:48.715Z,6.00
2023-02-27T16:10:51.779Z,6.00
2023-02-27T16:13:54.600Z,6.00
2023-02-27T16:16:56.525Z,5.90
2023-02-27T16:20:02.048Z,5.90
2023-02-27T16:23:25.691Z,5.90
2023-02-27T16:26:31.872Z,5.90
2023-02-27T16:29:44.177Z,5.90
2023-02-27T16:32:46.671Z,5.80
2023-02-27T16:35:49.376Z,5.80
2023-02-27T16:38:51.800Z,5.80
2023-02-27T16:41:54.883Z,5.80
2023-02-27T16:44:57.005Z,5.80
2023-02-27T16:48:01.177Z,5.90
2023-02-27T16:51:22.401Z,5.80
2023-02-27T16:54:24.496Z,5.80
2023-02-27T16:57:27.849Z,5.70
2023-02-27T17:00:30.521Z,5.70
2023-02-27T17:03:33.376Z,5.70
2023-02-27T17:06:35.447Z,5.70
2023-02-27T17:09:37.552Z,5.60
2023-02-27T17:12:43.774Z,5.60
2023-02-27T17:15:45.959Z,5.60
2023-02-27T17:18:47.990Z,5.50
2023-02-27T17:21:50.803Z,5.50
2023-02-27T17:24:53.194Z,5.50
2023-02-27T17:28:04.464Z,5.50
2023-02-27T17:31:10.690Z,5.60
2023-02-27T17:34:12.718Z,5.50
2023-02-27T17:37:14.680Z,5.50
2023-02-27T17:40:16.854Z,5.40
2023-02-27T17:43:18.755Z,5.40
2023-02-27T17:46:21.573Z,5.30
2023-02-27T17:49:23.604Z,5.30
2023-02-27T17:52:25.697Z,5.30
2023-02-27T17:55:27.915Z,5.20
2023-02-27T17:58:30.088Z,5.20
2023-02-27T18:01:32.203Z,5.20
2023-02-27T18:04:35.622Z,5.20
2023-02-27T18:07:37.545Z,5.10
2023-02-27T18:10:39.554Z,5.00
2023-02-27T18:13:42.575Z,5.00
2023-02-27T18:16:45.201Z,5.00
2023-02-27T18:19:47.029Z,4.90
2023-02-27T18:22:48.932Z,4.90
2023-02-27T18:25:57.917Z,4.80
2023-02-27T18:29:05.311Z,4.80
2023-02-27T18:32:10.451Z,4.80
2023-02-27T18:35:12.610Z,4.80
2023-02-27T18:38:14.521Z,4.70
2023-02-27T18:41:16.300Z,4.60
2023-02-27T18:44:18.376Z,4.50
2023-02-27T18:47:20.434Z,4.50
2023-02-27T18:50:22.502Z,4.50
2023-02-27T18:53:24.305Z,4.50
2023-02-27T18:56:27.195Z,4.50
2023-02-27T18:59:29.440Z,4.40
2023-02-27T19:02:31.808Z,4.40
2023-02-27T19:05:38.275Z,4.30
2023-02-27T19:08:40.315Z,4.30
2023-02-27T19:11:42.378Z,4.30
2023-02-27T19:14:44.179Z,4.20
2023-02-27T19:17:46.872Z,4.30
2023-02-27T19:20:48.837Z,4.20
2023-02-27T19:23:51.132Z,4.20
2023-02-27T19:26:53.590Z,4.20
2023-02-27T19:29:55.471Z,4.20
2023-02-27T19:33:00.460Z,4.20
2023-02-27T19:36:07.291Z,4.10
2023-02-27T19:39:10.225Z,4.20
2023-02-27T19:42:12.376Z,4.20
2023-02-27T19:45:14.413Z,4.10
2023-02-27T19:48:18.991Z,4.10
2023-02-27T19:51:21.407Z,4.00
2023-02-27T19:54:24.065Z,4.00
2023-02-27T19:57:26.198Z,4.00
2023-02-27T20:00:28.040Z,3.90
2023-02-27T20:03:30.463Z,3.90
2023-02-27T20:06:42.278Z,3.90
2023-02-27T20:09:44.424Z,3.90
2023-02-27T20:12:46.409Z,3.80
2023-02-27T20:15:56.773Z,3.70
2023-02-27T20:18:58.528Z,3.70
2023-02-27T20:22:00.638Z,3.70
2023-02-27T20:25:02.523Z,3.70
2023-02-27T20:28:04.573Z,3.60
2023-02-27T20:31:11.397Z,3.70
2023-02-27T20:34:15.923Z,3.70
2023-02-27T20:37:18.118Z,3.70
2023-02-27T20:40:20.004Z,3.60
2023-02-27T20:43:21.756Z,3.60
2023-02-27T20:46:27.985Z,3.60
2023-02-27T20:49:29.772Z,3.60
2023-02-27T20:52:31.769Z,3.60
2023-02-27T20:55:33.835Z,3.50
2023-02-27T20:58:36.259Z,3.50
2023-02-27T21:01:39.043Z,3.50
2023-02-27T21:04:47.196Z,3.40
2023-02-27T21:07:49.392Z,3.40
2023-02-27T21:10:51.681Z,3.40
2023-02-27T21:13:58.436Z,3.40
2023-02-27T21:17:00.435Z,3.20
2023-02-27T21:20:06.835Z,3.30
2023-02-27T21:23:09.832Z,3.30
2023-02-27T21:26:20.627Z,3.20
2023-02-27T21:29:22.673Z,3.20
2023-02-27T21:32:24.486Z,3.20
2023-02-27T21:35:26.678Z,3.10
2023-02-27T21:38:29.412Z,3.10
2023-02-27T21:41:32.099Z,3.10
2023-02-27T21:44:34.208Z,3.10
2023-02-27T21:47:36.041Z,3.10
2023-02-27T21:50:37.869Z,3.00
2023-02-27T21:53:39.990Z,3.10
2023-02-27T21:56:43.176Z,3.10
2023-02-27T21:59:45.036Z,3.10
2023-02-27T22:02:47.465Z,3.00
2023-02-27T22:05:50.097Z,3.00
2023-02-27T22:08:56.889Z,3.00
2023-02-27T22:11:58.915Z,3.00
2023-02-27T22:15:00.760Z,3.00
2023-02-27T22:18:04.408Z,2.90
2023-02-27T22:21:16.097Z,2.90
2023-02-27T22:24:18.449Z,2.90
2023-02-27T22:27:20.397Z,2.80
2023-02-27T22:30:22.187Z,2.60
2023-02-27T22:33:23.989Z,2.60
2023-02-27T22:36:29.205Z,2.60
2023-02-27T22:39:31.193Z,2.50
2023-02-27T22:42:33.037Z,2.40
2023-02-27T22:45:34.892Z,2.40
2023-02-27T22:48:37.048Z,2.40
2023-02-27T22:51:39.128Z,2.40
2023-02-27T22:54:41.064Z,2.50
2023-02-27T22:57:43.114Z,2.60
2023-02-27T23:00:44.936Z,2.60
2023-02-27T23:03:49.257Z,2.50
2023-02-27T23:06:52.799Z,2.60
2023-02-27T23:09:55.014Z,2.50
2023-02-27T23:12:56.841Z,2.50
2023-02-27T23:15:59.814Z,2.40
2023-02-27T23:19:03.745Z,2.30
2023-02-27T23:22:05.577Z,2.30
2023-02-27T23:25:09.262Z,2.30
2023-02-27T23:28:12.084Z,2.20
2023-02-27T23:31:13.925Z,2.30
2023-02-27T23:34:16.530Z,2.30
2023-02-27T23:37:18.575Z,2.30
2023-02-27T23:40:22.800Z,2.30
2023-02-27T23:43:24.911Z,2.40
2023-02-27T23:46:30.252Z,2.40
2023-02-27T23:49:32.124Z,2.40
2023-02-27T23:52:33.952Z,2.20
2023-02-27T23:55:37.233Z,2.30
2023-02-27T23:58:39.046Z,2.30
